Terminal Aerodrome Forecast
Issued by NWS

Home | Current Version | Previous Version | Text Only | Print | Product List | Glossary On
Versions: 1 2 3 4 5 6 7 8 9 10 11 12
000
FTUS46 KEKA 311100
TAFUKI
TAF
KUKI 311133Z 3112/0112 00000KT P6SM FEW250
     FM311900 VRB03KT P6SM SKC
     FM312200 28006KT P6SM SKC
     FM010200 VRB05KT P6SM SKC
     FM010500 00000KT P6SM SKC=

USA.gov is the U.S. government's official web portal to all federal, state and local government web resources and services.